Time;durP1;ratioP1;P1;durP2;ratioP2;P2;SDS_P1;SDS_P2;PMS_P1;PMS_P2;Temp;Humidity;BMP_temperature;BMP_pressure;BME280_temperature;BME280_humidity;BME280_pressure;Samples;Min_cycle;Max_cycle;Signal;HPM_P1;HPM_P2
2022/01/09 00:02:24;;;;;;;0.38;0.38;;;;;;;;;;4999526;28;20060;-73
2022/01/09 00:04:50;;;;;;;0.10;0.10;;;;;;;;;;4994066;28;20203;-73
2022/01/09 00:07:16;;;;;;;0.20;0.20;;;;;;;;;;4987995;28;20496;-74
2022/01/09 00:09:44;;;;;;;0.20;0.20;;;;;;;;;;4999527;28;20121;-73
2022/01/09 00:12:10;;;;;;;0.63;0.63;;;;;;;;;;4985395;28;20060;-73
2022/01/09 00:14:36;;;;;;;0.10;0.10;;;;;;;;;;4995438;28;20038;-73
2022/01/09 00:17:02;;;;;;;0.28;0.28;;;;;;;;;;4984003;28;20740;-73
2022/01/09 00:19:28;;;;;;;0.73;0.73;;;;;;;;;;4986863;28;20033;-73
2022/01/09 00:21:54;;;;;;;0.15;0.15;;;;;;;;;;4992854;28;20018;-73
2022/01/09 00:24:20;;;;;;;0.08;0.08;;;;;;;;;;4979699;28;20037;-73
2022/01/09 00:26:46;;;;;;;0.15;0.15;;;;;;;;;;4985866;28;20170;-73
2022/01/09 00:29:12;;;;;;;0.10;0.10;;;;;;;;;;4989315;28;20038;-73
2022/01/09 00:31:38;;;;;;;0.20;0.20;;;;;;;;;;4983657;28;20022;-73
2022/01/09 00:34:04;;;;;;;0.30;0.30;;;;;;;;;;4986631;28;20387;-73
2022/01/09 00:36:31;;;;;;;0.80;0.63;;;;;;;;;;4992939;28;20076;-73
2022/01/09 00:38:57;;;;;;;0.00;0.00;;;;;;;;;;5004518;28;20360;-73
2022/01/09 00:41:23;;;;;;;0.10;0.10;;;;;;;;;;4989227;28;20104;-73
2022/01/09 00:43:50;;;;;;;0.10;0.10;;;;;;;;;;4984511;28;20465;-73
2022/01/09 00:46:16;;;;;;;0.20;0.20;;;;;;;;;;4982696;28;20061;-73
2022/01/09 00:48:41;;;;;;;0.32;0.32;;;;;;;;;;4993552;28;20112;-73
2022/01/09 00:51:07;;;;;;;0.10;0.10;;;;;;;;;;5002974;28;20045;-73
2022/01/09 00:53:33;;;;;;;0.10;0.10;;;;;;;;;;4995060;28;20095;-74
2022/01/09 00:56:00;;;;;;;0.10;0.10;;;;;;;;;;4989706;28;20039;-73
2022/01/09 00:58:26;;;;;;;0.10;0.10;;;;;;;;;;4983218;28;20121;-73
2022/01/09 01:00:53;;;;;;;0.32;0.32;;;;;;;;;;4990758;28;20108;-73
2022/01/09 01:03:18;;;;;;;0.20;0.20;;;;;;;;;;5000774;28;20034;-73
2022/01/09 01:05:44;;;;;;;0.13;0.13;;;;;;;;;;4985071;28;20028;-73
2022/01/09 01:08:10;;;;;;;0.40;0.40;;;;;;;;;;4993136;28;20129;-73
2022/01/09 01:10:36;;;;;;;0.40;0.35;;;;;;;;;;4990023;28;20516;-73
2022/01/09 01:13:02;;;;;;;0.47;0.35;;;;;;;;;;4982682;28;20060;-73
2022/01/09 01:15:28;;;;;;;0.20;0.20;;;;;;;;;;4989378;28;20095;-74
2022/01/09 01:17:54;;;;;;;0.30;0.30;;;;;;;;;;4992523;28;20057;-73
2022/01/09 01:20:22;;;;;;;0.22;0.22;;;;;;;;;;5004677;28;20057;-73
2022/01/09 01:22:50;;;;;;;0.10;0.10;;;;;;;;;;4984749;28;20117;-74
2022/01/09 01:25:16;;;;;;;0.40;0.40;;;;;;;;;;4987129;28;20113;-74
2022/01/09 01:27:42;;;;;;;9.00;1.45;;;;;;;;;;4987530;28;20044;-72
2022/01/09 01:30:08;;;;;;;0.10;0.10;;;;;;;;;;4983833;28;20404;-73
2022/01/09 01:32:34;;;;;;;0.20;0.20;;;;;;;;;;4978044;28;20057;-73
2022/01/09 01:35:00;;;;;;;0.52;0.45;;;;;;;;;;4983310;28;20477;-73
2022/01/09 01:37:26;;;;;;;0.30;0.30;;;;;;;;;;4993006;28;20097;-74
2022/01/09 01:39:52;;;;;;;0.32;0.32;;;;;;;;;;4992019;28;20486;-73
2022/01/09 01:42:18;;;;;;;0.00;0.00;;;;;;;;;;4988729;28;20106;-73
2022/01/09 01:44:45;;;;;;;0.32;0.32;;;;;;;;;;4991367;28;20023;-73
2022/01/09 01:47:13;;;;;;;3.30;1.40;;;;;;;;;;4999415;28;20053;-73
2022/01/09 01:49:39;;;;;;;0.32;0.32;;;;;;;;;;4984081;28;20061;-73
2022/01/09 01:52:05;;;;;;;0.45;0.45;;;;;;;;;;4984996;28;20023;-73
2022/01/09 01:54:32;;;;;;;0.40;0.40;;;;;;;;;;5000488;28;20076;-73
2022/01/09 01:56:58;;;;;;;0.40;0.40;;;;;;;;;;4995046;28;20527;-72
2022/01/09 01:59:24;;;;;;;1.02;0.82;;;;;;;;;;4992579;28;20034;-74
2022/01/09 02:01:50;;;;;;;0.10;0.10;;;;;;;;;;4988487;28;20026;-73
2022/01/09 02:04:16;;;;;;;0.17;0.17;;;;;;;;;;4985082;28;20128;-73
2022/01/09 02:06:43;;;;;;;0.10;0.10;;;;;;;;;;4985617;28;20138;-73
2022/01/09 02:09:09;;;;;;;1.45;0.57;;;;;;;;;;4982546;28;20030;-73
2022/01/09 02:11:35;;;;;;;0.75;0.75;;;;;;;;;;4993585;28;20488;-73
2022/01/09 02:14:01;;;;;;;0.20;0.20;;;;;;;;;;4997731;28;20061;-73
2022/01/09 02:16:28;;;;;;;0.20;0.20;;;;;;;;;;4992333;28;20038;-73
2022/01/09 02:18:54;;;;;;;0.10;0.10;;;;;;;;;;4984491;28;20050;-74
2022/01/09 02:21:22;;;;;;;0.00;0.00;;;;;;;;;;4993462;28;20057;-73
2022/01/09 02:23:49;;;;;;;0.10;0.10;;;;;;;;;;4994325;28;20050;-73
2022/01/09 02:26:18;;;;;;;0.20;0.20;;;;;;;;;;4986634;28;20034;-73
2022/01/09 02:28:44;;;;;;;0.20;0.20;;;;;;;;;;4983861;28;20046;-72
2022/01/09 02:31:10;;;;;;;0.50;0.50;;;;;;;;;;4994762;28;20034;-73
2022/01/09 02:33:36;;;;;;;0.10;0.10;;;;;;;;;;4984363;28;20052;-73
2022/01/09 02:36:02;;;;;;;0.30;0.30;;;;;;;;;;4989064;28;20744;-72
2022/01/09 02:38:28;;;;;;;0.20;0.20;;;;;;;;;;4986403;28;20056;-73
2022/01/09 02:40:55;;;;;;;0.10;0.10;;;;;;;;;;4978486;28;20038;-73
2022/01/09 02:43:21;;;;;;;3.72;1.23;;;;;;;;;;4987897;28;20046;-74
2022/01/09 02:45:53;;;;;;;0.40;0.40;;;;;;;;;;4984266;28;20050;-73
2022/01/09 02:48:19;;;;;;;0.35;0.35;;;;;;;;;;4988846;28;20044;-73
2022/01/09 02:51:00;;;;;;;0.10;0.10;;;;;;;;;;4988922;28;20809;-73
2022/01/09 02:53:29;;;;;;;0.17;0.17;;;;;;;;;;4981382;28;20053;-73
2022/01/09 02:55:55;;;;;;;0.15;0.15;;;;;;;;;;4973788;28;20107;-74
2022/01/09 02:58:22;;;;;;;0.10;0.10;;;;;;;;;;4994580;28;20018;-73
2022/01/09 03:00:48;;;;;;;0.68;0.68;;;;;;;;;;4985285;28;20030;-73
2022/01/09 03:03:14;;;;;;;0.32;0.32;;;;;;;;;;4982180;28;20027;-73
2022/01/09 03:05:40;;;;;;;0.95;0.65;;;;;;;;;;4997608;28;20030;-73
2022/01/09 03:08:07;;;;;;;0.20;0.20;;;;;;;;;;4999804;28;20027;-73
2022/01/09 03:10:33;;;;;;;1.27;0.47;;;;;;;;;;4987110;28;20050;-72
2022/01/09 03:13:00;;;;;;;0.57;0.57;;;;;;;;;;4979667;28;20119;-73
2022/01/09 03:15:26;;;;;;;1.10;1.00;;;;;;;;;;4985237;28;20038;-73
2022/01/09 03:17:52;;;;;;;0.10;0.10;;;;;;;;;;4978414;28;20037;-73
2022/01/09 03:20:20;;;;;;;0.40;0.40;;;;;;;;;;4986386;28;20147;-73
2022/01/09 03:22:46;;;;;;;0.57;0.57;;;;;;;;;;4986888;28;20084;-73
2022/01/09 03:25:12;;;;;;;0.10;0.10;;;;;;;;;;4998706;28;20125;-74
2022/01/09 03:27:39;;;;;;;0.17;0.17;;;;;;;;;;4989405;28;20038;-73
2022/01/09 03:30:08;;;;;;;0.30;0.30;;;;;;;;;;4985014;28;20468;-73
2022/01/09 03:32:34;;;;;;;0.30;0.30;;;;;;;;;;4990420;28;20105;-73
2022/01/09 03:35:00;;;;;;;0.75;0.75;;;;;;;;;;4986457;28;20034;-73
2022/01/09 03:37:26;;;;;;;0.10;0.10;;;;;;;;;;4998441;28;20389;-73
2022/01/09 03:39:52;;;;;;;0.40;0.40;;;;;;;;;;4997023;28;20033;-73
2022/01/09 03:42:18;;;;;;;0.85;0.85;;;;;;;;;;4989927;28;20046;-73
2022/01/09 03:44:44;;;;;;;4.28;1.17;;;;;;;;;;4987711;28;21126;-73
2022/01/09 03:47:11;;;;;;;0.35;0.35;;;;;;;;;;4981233;28;20050;-74
2022/01/09 03:49:38;;;;;;;0.10;0.10;;;;;;;;;;4979893;28;20050;-73
2022/01/09 03:52:04;;;;;;;0.57;0.57;;;;;;;;;;4989680;28;20492;-73
2022/01/09 03:54:29;;;;;;;0.20;0.20;;;;;;;;;;4990532;28;20469;-73
2022/01/09 03:56:55;;;;;;;0.43;0.43;;;;;;;;;;4983047;28;20113;-73
2022/01/09 03:59:21;;;;;;;0.10;0.10;;;;;;;;;;4999940;28;20032;-73
2022/01/09 04:01:47;;;;;;;0.32;0.32;;;;;;;;;;4987211;28;20026;-73
2022/01/09 04:04:13;;;;;;;0.20;0.20;;;;;;;;;;4982311;28;20064;-73
2022/01/09 04:06:45;;;;;;;0.55;0.43;;;;;;;;;;4989434;28;20088;-73
2022/01/09 04:09:18;;;;;;;0.65;0.65;;;;;;;;;;4994406;28;20042;-73
2022/01/09 04:11:45;;;;;;;1.08;0.80;;;;;;;;;;4998857;28;20163;-74
2022/01/09 04:14:11;;;;;;;2.08;1.80;;;;;;;;;;4986463;28;20428;-73
2022/01/09 04:16:36;;;;;;;2.25;1.58;;;;;;;;;;4992543;28;20488;-73
2022/01/09 04:19:02;;;;;;;0.47;0.47;;;;;;;;;;5002613;28;20026;-73
2022/01/09 04:21:29;;;;;;;0.10;0.10;;;;;;;;;;4993071;28;20038;-73
2022/01/09 04:23:55;;;;;;;0.30;0.30;;;;;;;;;;4985210;28;20039;-74
2022/01/09 04:26:21;;;;;;;0.65;0.57;;;;;;;;;;4985529;28;20042;-73
2022/01/09 04:28:47;;;;;;;1.00;0.93;;;;;;;;;;5000962;28;20048;-73
2022/01/09 04:31:15;;;;;;;0.10;0.10;;;;;;;;;;4989215;28;20033;-74
2022/01/09 04:33:41;;;;;;;0.20;0.20;;;;;;;;;;4985986;28;20042;-73
2022/01/09 04:36:07;;;;;;;0.20;0.20;;;;;;;;;;4980453;28;20045;-73
2022/01/09 04:38:33;;;;;;;0.10;0.10;;;;;;;;;;4983164;28;20397;-73
2022/01/09 04:40:59;;;;;;;1.27;0.88;;;;;;;;;;4985381;28;20022;-73
2022/01/09 04:43:27;;;;;;;1.17;0.85;;;;;;;;;;4997345;28;20026;-73
2022/01/09 04:45:53;;;;;;;1.05;0.88;;;;;;;;;;4990340;28;20077;-72
2022/01/09 04:48:19;;;;;;;0.32;0.32;;;;;;;;;;4989810;28;20489;-73
2022/01/09 04:50:46;;;;;;;0.10;0.10;;;;;;;;;;4990796;28;20034;-73
2022/01/09 04:53:13;;;;;;;2.38;0.55;;;;;;;;;;4982497;28;20026;-73
2022/01/09 04:55:41;;;;;;;0.10;0.10;;;;;;;;;;4991409;28;20069;-73
2022/01/09 04:58:07;;;;;;;0.43;0.43;;;;;;;;;;4991347;28;20026;-73
2022/01/09 05:00:33;;;;;;;1.20;0.57;;;;;;;;;;4975748;28;20524;-73
2022/01/09 05:02:59;;;;;;;0.98;0.73;;;;;;;;;;4985385;28;20065;-73
2022/01/09 05:05:25;;;;;;;0.17;0.17;;;;;;;;;;4985375;28;20042;-74
2022/01/09 05:07:51;;;;;;;0.20;0.20;;;;;;;;;;4988686;28;20085;-73
2022/01/09 05:10:17;;;;;;;0.10;0.10;;;;;;;;;;4991315;28;20022;-73
2022/01/09 05:12:58;;;;;;;0.20;0.20;;;;;;;;;;4982945;28;20053;-73
2022/01/09 05:15:24;;;;;;;1.55;0.63;;;;;;;;;;4976177;28;20046;-73
2022/01/09 05:17:53;;;;;;;0.10;0.10;;;;;;;;;;4989851;28;20034;-73
2022/01/09 05:20:19;;;;;;;0.20;0.20;;;;;;;;;;4996934;28;20173;-73
2022/01/09 05:22:45;;;;;;;0.13;0.13;;;;;;;;;;4991764;28;20109;-72
2022/01/09 05:25:11;;;;;;;0.10;0.10;;;;;;;;;;4987280;28;20118;-72
2022/01/09 05:27:37;;;;;;;0.10;0.10;;;;;;;;;;4987105;28;20038;-72
2022/01/09 05:30:04;;;;;;;0.10;0.10;;;;;;;;;;4985714;28;20105;-71
2022/01/09 05:32:30;;;;;;;0.10;0.10;;;;;;;;;;4983127;28;20375;-71
2022/01/09 05:34:55;;;;;;;0.10;0.10;;;;;;;;;;4980983;28;20045;-71
2022/01/09 05:37:21;;;;;;;0.35;0.35;;;;;;;;;;4987773;28;20724;-71
2022/01/09 05:39:47;;;;;;;0.10;0.10;;;;;;;;;;4978563;28;20011;-72
2022/01/09 05:42:14;;;;;;;0.52;0.52;;;;;;;;;;4981796;28;20073;-71
2022/01/09 05:44:40;;;;;;;0.20;0.20;;;;;;;;;;4975641;28;20030;-72
2022/01/09 05:50:01;;;;;;;0.35;0.35;;;;;;;;;;4986123;28;20038;-72
2022/01/09 05:52:27;;;;;;;1.73;0.90;;;;;;;;;;4995940;28;20033;-72
2022/01/09 05:54:52;;;;;;;0.40;0.40;;;;;;;;;;4995193;28;20058;-71
2022/01/09 05:57:18;;;;;;;0.20;0.20;;;;;;;;;;4994130;28;20437;-72
2022/01/09 05:59:44;;;;;;;3.03;1.10;;;;;;;;;;4996752;28;20109;-72
2022/01/09 06:02:10;;;;;;;0.10;0.10;;;;;;;;;;4993748;28;20098;-72
2022/01/09 06:04:36;;;;;;;0.20;0.20;;;;;;;;;;4994050;28;20034;-72
2022/01/09 06:07:02;;;;;;;0.10;0.10;;;;;;;;;;4995167;28;20022;-74
2022/01/09 06:09:28;;;;;;;0.52;0.52;;;;;;;;;;4996803;28;20076;-72
2022/01/09 06:11:54;;;;;;;0.13;0.13;;;;;;;;;;4995504;28;20499;-72
2022/01/09 06:14:20;;;;;;;1.08;0.90;;;;;;;;;;4994286;28;20034;-72
2022/01/09 06:16:46;;;;;;;0.30;0.30;;;;;;;;;;4995971;28;20048;-71
2022/01/09 06:19:11;;;;;;;0.90;0.75;;;;;;;;;;4993220;28;20173;-72
2022/01/09 06:21:37;;;;;;;0.10;0.10;;;;;;;;;;4996295;28;20121;-71
2022/01/09 06:24:03;;;;;;;0.60;0.60;;;;;;;;;;4995522;28;20030;-72
2022/01/09 06:26:29;;;;;;;0.10;0.10;;;;;;;;;;4995484;28;20034;-72
2022/01/09 06:28:55;;;;;;;0.40;0.40;;;;;;;;;;4996951;28;20521;-71
2022/01/09 06:31:21;;;;;;;0.17;0.17;;;;;;;;;;4995072;28;20129;-72
2022/01/09 06:33:47;;;;;;;0.10;0.10;;;;;;;;;;4996295;28;20044;-72
2022/01/09 06:36:14;;;;;;;0.10;0.10;;;;;;;;;;4990693;28;20026;-72
2022/01/09 06:38:40;;;;;;;0.50;0.40;;;;;;;;;;4991883;28;20057;-72
2022/01/09 06:41:06;;;;;;;0.85;0.85;;;;;;;;;;4995566;28;20384;-72
2022/01/09 06:43:32;;;;;;;0.90;0.73;;;;;;;;;;4994644;28;20539;-72
2022/01/09 06:45:58;;;;;;;0.28;0.28;;;;;;;;;;4992860;28;20171;-71
2022/01/09 06:48:24;;;;;;;0.30;0.30;;;;;;;;;;4993133;28;20472;-72
2022/01/09 06:53:39;;;;;;;0.15;0.15;;;;;;;;;;4986812;28;20036;-72
2022/01/09 06:56:06;;;;;;;1.90;1.25;;;;;;;;;;4994098;28;20026;-72
2022/01/09 06:58:32;;;;;;;0.10;0.10;;;;;;;;;;4990486;28;20031;-72
2022/01/09 07:00:58;;;;;;;0.10;0.10;;;;;;;;;;4993229;28;20041;-71
2022/01/09 07:03:23;;;;;;;0.50;0.50;;;;;;;;;;4995219;28;20045;-72
2022/01/09 07:05:51;;;;;;;0.30;0.30;;;;;;;;;;4992244;28;20589;-72
2022/01/09 07:08:17;;;;;;;0.17;0.17;;;;;;;;;;4993470;28;20030;-72
2022/01/09 07:10:43;;;;;;;0.13;0.13;;;;;;;;;;4994382;28;20481;-72
2022/01/09 07:13:09;;;;;;;0.15;0.15;;;;;;;;;;4994275;28;20396;-72
2022/01/09 07:15:35;;;;;;;0.10;0.10;;;;;;;;;;4993404;28;20035;-72
2022/01/09 07:18:01;;;;;;;0.28;0.28;;;;;;;;;;4993466;28;20039;-72
2022/01/09 07:20:27;;;;;;;0.15;0.15;;;;;;;;;;4992943;28;20022;-72
2022/01/09 07:22:53;;;;;;;1.67;0.73;;;;;;;;;;4994979;28;20018;-72
2022/01/09 07:25:19;;;;;;;0.43;0.43;;;;;;;;;;4991559;28;20046;-72
2022/01/09 07:27:45;;;;;;;0.20;0.20;;;;;;;;;;4992941;28;20389;-72
2022/01/09 07:30:11;;;;;;;0.10;0.10;;;;;;;;;;4992011;28;20034;-72
2022/01/09 07:32:37;;;;;;;0.88;0.88;;;;;;;;;;4993859;28;20530;-71
2022/01/09 07:35:04;;;;;;;0.57;0.57;;;;;;;;;;4995366;28;20035;-72
2022/01/09 07:37:30;;;;;;;0.20;0.20;;;;;;;;;;4991823;28;20452;-71
2022/01/09 07:39:57;;;;;;;2.72;1.25;;;;;;;;;;4994085;28;20042;-71
2022/01/09 07:42:23;;;;;;;4.28;1.35;;;;;;;;;;4993925;28;20117;-72
2022/01/09 07:44:49;;;;;;;0.65;0.47;;;;;;;;;;4993029;28;20489;-72
2022/01/09 07:47:15;;;;;;;1.50;0.82;;;;;;;;;;4991844;28;20034;-72
2022/01/09 07:49:40;;;;;;;0.40;0.40;;;;;;;;;;4994129;28;20042;-72
2022/01/09 07:52:06;;;;;;;1.35;0.95;;;;;;;;;;4993732;28;20046;-71
2022/01/09 07:54:33;;;;;;;1.35;1.15;;;;;;;;;;4994845;28;20521;-71
2022/01/09 07:56:59;;;;;;;0.35;0.35;;;;;;;;;;4993669;28;20034;-72
2022/01/09 07:59:25;;;;;;;0.75;0.75;;;;;;;;;;4995167;28;20034;-72
2022/01/09 08:01:51;;;;;;;1.25;0.43;;;;;;;;;;4993630;28;20397;-71
2022/01/09 08:04:17;;;;;;;0.85;0.70;;;;;;;;;;4997262;28;20058;-72
2022/01/09 08:06:43;;;;;;;0.73;0.73;;;;;;;;;;4994471;28;20038;-72
2022/01/09 08:09:09;;;;;;;0.22;0.22;;;;;;;;;;4995814;28;20029;-72
2022/01/09 08:11:34;;;;;;;0.30;0.30;;;;;;;;;;4993732;28;20125;-72
2022/01/09 08:14:00;;;;;;;0.45;0.43;;;;;;;;;;4995653;28;20058;-71
2022/01/09 08:16:26;;;;;;;0.10;0.10;;;;;;;;;;4997012;28;20156;-71
2022/01/09 08:18:53;;;;;;;4.07;0.40;;;;;;;;;;4994013;28;20027;-71
2022/01/09 08:21:20;;;;;;;0.60;0.60;;;;;;;;;;4994806;28;20045;-72
2022/01/09 08:23:49;;;;;;;0.10;0.10;;;;;;;;;;4993763;28;20061;-71
2022/01/09 08:26:15;;;;;;;0.20;0.20;;;;;;;;;;4996227;28;20053;-72
2022/01/09 08:28:44;;;;;;;0.10;0.10;;;;;;;;;;4994772;28;20374;-71
2022/01/09 08:31:10;;;;;;;0.32;0.32;;;;;;;;;;4996122;28;20041;-71
2022/01/09 08:33:36;;;;;;;2.97;0.63;;;;;;;;;;4995025;28;20048;-71
2022/01/09 08:36:02;;;;;;;0.28;0.28;;;;;;;;;;4995354;28;20034;-71
2022/01/09 08:38:28;;;;;;;0.10;0.10;;;;;;;;;;4994952;28;20030;-71
2022/01/09 08:40:54;;;;;;;0.63;0.63;;;;;;;;;;4996923;28;20022;-71
2022/01/09 08:43:20;;;;;;;0.10;0.10;;;;;;;;;;4996397;28;20038;-71
2022/01/09 08:45:46;;;;;;;0.30;0.30;;;;;;;;;;4996211;28;20046;-71
2022/01/09 08:48:11;;;;;;;0.10;0.10;;;;;;;;;;4997466;28;20030;-71
2022/01/09 08:50:37;;;;;;;1.65;0.45;;;;;;;;;;4993213;28;20073;-70
2022/01/09 08:53:03;;;;;;;0.55;0.47;;;;;;;;;;4995165;28;20026;-70
2022/01/09 08:55:32;;;;;;;0.10;0.10;;;;;;;;;;4996679;28;20492;-70
2022/01/09 08:57:58;;;;;;;0.00;0.00;;;;;;;;;;4996515;28;20011;-71
2022/01/09 09:00:25;;;;;;;0.82;0.80;;;;;;;;;;4995496;28;20366;-72
2022/01/09 09:02:51;;;;;;;0.15;0.15;;;;;;;;;;4996398;28;20042;-71
2022/01/09 09:05:18;;;;;;;0.47;0.47;;;;;;;;;;4993217;28;20034;-71
2022/01/09 09:07:44;;;;;;;0.75;0.75;;;;;;;;;;4995316;28;20095;-71
2022/01/09 09:10:10;;;;;;;1.30;1.20;;;;;;;;;;4991960;28;20026;-71
2022/01/09 09:12:36;;;;;;;0.63;0.52;;;;;;;;;;4994054;28;20026;-71
2022/01/09 09:15:07;;;;;;;1.02;0.98;;;;;;;;;;4991616;28;20041;-71
2022/01/09 09:17:33;;;;;;;0.50;0.50;;;;;;;;;;4995312;28;20030;-72
2022/01/09 09:19:59;;;;;;;0.30;0.30;;;;;;;;;;4985358;28;20490;-71
2022/01/09 09:22:25;;;;;;;0.20;0.20;;;;;;;;;;4994316;28;20076;-72
2022/01/09 09:24:51;;;;;;;0.47;0.32;;;;;;;;;;4994887;28;20037;-71
2022/01/09 09:27:18;;;;;;;0.32;0.32;;;;;;;;;;4993628;28;20377;-71
2022/01/09 09:29:44;;;;;;;0.20;0.20;;;;;;;;;;4990590;28;20022;-71
2022/01/09 09:32:23;;;;;;;0.65;0.52;;;;;;;;;;4989639;28;20704;-71
2022/01/09 09:34:49;;;;;;;0.08;0.08;;;;;;;;;;4975947;28;20657;-71
2022/01/09 09:37:15;;;;;;;0.30;0.30;;;;;;;;;;4992766;28;20018;-72
2022/01/09 09:39:41;;;;;;;0.43;0.43;;;;;;;;;;4989138;28;20121;-71
2022/01/09 09:42:09;;;;;;;0.20;0.20;;;;;;;;;;4982626;28;20030;-70
2022/01/09 09:44:36;;;;;;;0.65;0.65;;;;;;;;;;4992358;28;20473;-69
2022/01/09 09:47:03;;;;;;;0.10;0.10;;;;;;;;;;4978972;28;20038;-71
2022/01/09 09:49:29;;;;;;;0.52;0.52;;;;;;;;;;4984016;28;20492;-68
2022/01/09 09:51:55;;;;;;;1.00;1.00;;;;;;;;;;4987710;28;20041;-69
2022/01/09 09:54:21;;;;;;;1.02;0.98;;;;;;;;;;4990015;28;20046;-68
2022/01/09 09:56:47;;;;;;;0.20;0.20;;;;;;;;;;4984716;28;20654;-71
2022/01/09 09:59:13;;;;;;;0.20;0.20;;;;;;;;;;4985649;28;20606;-71
2022/01/09 10:01:39;;;;;;;1.27;1.15;;;;;;;;;;4983627;28;20073;-72
2022/01/09 10:04:06;;;;;;;0.45;0.45;;;;;;;;;;4984129;28;20120;-78
2022/01/09 10:06:41;;;;;;;1.27;0.82;;;;;;;;;;4986830;28;20309;-73
2022/01/09 10:09:09;;;;;;;0.20;0.20;;;;;;;;;;4987964;28;20549;-74
2022/01/09 10:11:47;;;;;;;0.95;0.65;;;;;;;;;;4989031;28;20524;-79
2022/01/09 10:14:18;;;;;;;0.20;0.20;;;;;;;;;;4988313;28;20486;-74
2022/01/09 10:16:44;;;;;;;;;;;;;;;;;;4988819;28;20620;-74
2022/01/09 10:19:10;;;;;;;0.10;0.10;;;;;;;;;;4988193;28;20000;-73
2022/01/09 10:21:36;;;;;;;0.30;0.30;;;;;;;;;;4987202;28;20037;-74
2022/01/09 10:24:06;;;;;;;0.25;0.25;;;;;;;;;;4986136;28;20038;-73
2022/01/09 10:26:37;;;;;;;0.40;0.40;;;;;;;;;;4986739;28;20030;-73
2022/01/09 10:29:04;;;;;;;0.10;0.10;;;;;;;;;;4988523;28;20025;-74
2022/01/09 10:31:30;;;;;;;0.10;0.10;;;;;;;;;;4980177;28;20535;-74
2022/01/09 10:34:04;;;;;;;0.88;0.60;;;;;;;;;;4987299;28;20030;-72
2022/01/09 10:36:37;;;;;;;0.52;0.52;;;;;;;;;;4988208;28;20027;-69
2022/01/09 10:39:07;;;;;;;0.10;0.10;;;;;;;;;;4991026;28;20030;-71
2022/01/09 10:41:51;;;;;;;0.10;0.10;;;;;;;;;;4981592;28;20026;-69
2022/01/09 10:44:18;;;;;;;0.35;0.35;;;;;;;;;;4999287;28;20079;-68
2022/01/09 10:46:55;;;;;;;0.00;0.00;;;;;;;;;;4991705;28;20566;-70
2022/01/09 10:49:20;;;;;;;0.38;0.32;;;;;;;;;;4985714;28;20528;-71
2022/01/09 10:51:47;;;;;;;0.20;0.20;;;;;;;;;;4984263;28;20195;-73
2022/01/09 10:54:27;;;;;;;1.20;0.38;;;;;;;;;;4983348;28;20113;-72
2022/01/09 10:57:09;;;;;;;0.10;0.10;;;;;;;;;;4984874;28;20462;-71
2022/01/09 10:59:35;;;;;;;0.50;0.50;;;;;;;;;;4988798;28;20478;-71
2022/01/09 11:02:01;;;;;;;0.75;0.75;;;;;;;;;;4978544;28;20045;-71
2022/01/09 11:04:27;;;;;;;3.03;0.52;;;;;;;;;;4997272;28;20033;-71
2022/01/09 11:06:53;;;;;;;0.75;0.75;;;;;;;;;;4990351;28;20034;-71
2022/01/09 11:09:21;;;;;;;0.52;0.50;;;;;;;;;;4986030;28;20021;-70
2022/01/09 11:11:48;;;;;;;0.28;0.28;;;;;;;;;;4988869;28;20034;-71
2022/01/09 11:14:19;;;;;;;0.20;0.20;;;;;;;;;;4986580;28;20026;-71
2022/01/09 11:16:53;;;;;;;0.13;0.13;;;;;;;;;;4979393;28;20057;-71
2022/01/09 11:19:20;;;;;;;0.05;0.05;;;;;;;;;;4991522;28;20545;-70
2022/01/09 11:21:48;;;;;;;0.13;0.13;;;;;;;;;;4990887;28;20031;-71
2022/01/09 11:24:18;;;;;;;0.10;0.10;;;;;;;;;;4995461;28;20030;-71
2022/01/09 11:26:58;;;;;;;0.10;0.10;;;;;;;;;;4992188;28;20436;-70
2022/01/09 11:29:29;;;;;;;0.13;0.13;;;;;;;;;;4994437;28;20045;-72
2022/01/09 11:31:55;;;;;;;;;;;;;;;;;;4994951;28;20118;-71
2022/01/09 11:34:40;;;;;;;0.60;0.60;;;;;;;;;;4993624;28;20403;-71
2022/01/09 11:37:23;;;;;;;0.43;0.43;;;;;;;;;;4995422;28;20034;-71
2022/01/09 11:39:49;;;;;;;1.13;1.02;;;;;;;;;;4998877;28;20057;-71
2022/01/09 11:42:16;;;;;;;0.38;0.38;;;;;;;;;;4991990;28;20030;-71
2022/01/09 11:44:53;;;;;;;0.30;0.30;;;;;;;;;;4992678;28;20034;-71
2022/01/09 11:47:19;;;;;;;0.00;0.00;;;;;;;;;;4993761;28;20414;-71
2022/01/09 11:49:58;;;;;;;1.20;0.95;;;;;;;;;;4994703;28;20681;-71
2022/01/09 11:52:26;;;;;;;0.10;0.10;;;;;;;;;;4997112;28;20030;-71
2022/01/09 11:54:58;;;;;;;0.35;0.35;;;;;;;;;;4990466;28;20044;-71
2022/01/09 11:57:37;;;;;;;0.52;0.52;;;;;;;;;;4982631;28;20036;-71
2022/01/09 12:00:04;;;;;;;2.03;1.27;;;;;;;;;;4992999;28;20022;-71
2022/01/09 12:02:32;;;;;;;0.28;0.28;;;;;;;;;;4987545;28;20034;-72
2022/01/09 12:05:02;;;;;;;0.05;0.05;;;;;;;;;;4989929;28;20488;-71
2022/01/09 12:07:34;;;;;;;3.65;2.08;;;;;;;;;;4992327;28;20037;-71
2022/01/09 12:10:01;;;;;;;0.40;0.40;;;;;;;;;;4987153;28;20053;-71
2022/01/09 12:12:37;;;;;;;0.20;0.20;;;;;;;;;;4986229;28;20035;-71
2022/01/09 12:15:08;;;;;;;0.10;0.10;;;;;;;;;;4986312;28;20113;-72
2022/01/09 12:17:40;;;;;;;0.60;0.30;;;;;;;;;;4990070;28;20022;-71
2022/01/09 12:20:15;;;;;;;0.20;0.20;;;;;;;;;;4986782;28;20480;-71
2022/01/09 12:22:46;;;;;;;1.33;1.25;;;;;;;;;;4981124;28;20418;-70
2022/01/09 12:25:24;;;;;;;0.50;0.50;;;;;;;;;;4991374;28;20598;-70
2022/01/09 12:27:54;;;;;;;0.70;0.70;;;;;;;;;;4990582;28;20451;-69
2022/01/09 12:30:41;;;;;;;0.80;0.75;;;;;;;;;;4986831;28;20026;-70
2022/01/09 12:33:09;;;;;;;0.20;0.20;;;;;;;;;;4993093;28;20275;-70
2022/01/09 12:35:35;;;;;;;0.10;0.10;;;;;;;;;;4981821;28;20178;-70
2022/01/09 12:38:02;;;;;;;0.20;0.20;;;;;;;;;;4992561;28;20466;-76
2022/01/09 12:40:29;;;;;;;0.80;0.80;;;;;;;;;;5001384;28;20037;-70
2022/01/09 12:42:56;;;;;;;0.10;0.10;;;;;;;;;;4993814;28;20030;-69
2022/01/09 12:45:28;;;;;;;0.45;0.45;;;;;;;;;;4980093;28;20049;-70
2022/01/09 12:47:54;;;;;;;0.28;0.25;;;;;;;;;;4975751;28;20038;-70
2022/01/09 12:50:27;;;;;;;0.40;0.40;;;;;;;;;;4993193;28;20180;-69
2022/01/09 12:53:12;;;;;;;0.52;0.52;;;;;;;;;;4998289;28;20026;-70
2022/01/09 12:55:58;;;;;;;0.17;0.17;;;;;;;;;;4979155;28;20065;-72
2022/01/09 12:58:28;;;;;;;0.35;0.35;;;;;;;;;;4993574;28;20034;-72
2022/01/09 13:00:55;;;;;;;0.40;0.40;;;;;;;;;;4971157;28;20057;-77
2022/01/09 13:03:22;;;;;;;0.20;0.20;;;;;;;;;;4992748;28;20099;-71
2022/01/09 13:05:57;;;;;;;0.40;0.40;;;;;;;;;;4986294;28;20524;-71
2022/01/09 13:08:24;;;;;;;0.82;0.82;;;;;;;;;;4986046;28;20038;-71
2022/01/09 13:10:57;;;;;;;1.00;1.00;;;;;;;;;;4986484;28;20413;-71
2022/01/09 13:13:26;;;;;;;0.10;0.10;;;;;;;;;;4996529;28;20034;-71
2022/01/09 13:15:53;;;;;;;0.43;0.43;;;;;;;;;;4988120;28;20421;-71
2022/01/09 13:18:34;;;;;;;1.35;0.43;;;;;;;;;;4993889;28;20100;-71
2022/01/09 13:21:18;;;;;;;0.30;0.30;;;;;;;;;;4992219;28;20389;-71
2022/01/09 13:23:56;;;;;;;1.50;1.40;;;;;;;;;;4984072;28;20030;-71
2022/01/09 13:26:22;;;;;;;0.40;0.40;;;;;;;;;;4988082;28;20485;-71
2022/01/09 13:28:49;;;;;;;0.28;0.28;;;;;;;;;;4988868;28;20507;-71
2022/01/09 13:31:16;;;;;;;0.20;0.20;;;;;;;;;;4990890;28;20112;-71
2022/01/09 13:33:52;;;;;;;0.10;0.10;;;;;;;;;;4989806;28;20039;-71
2022/01/09 13:36:26;;;;;;;0.08;0.08;;;;;;;;;;4984553;28;20030;-71
2022/01/09 13:38:52;;;;;;;0.25;0.20;;;;;;;;;;4985158;28;20504;-71
2022/01/09 13:41:19;;;;;;;0.10;0.10;;;;;;;;;;4987936;28;20022;-71
2022/01/09 13:43:47;;;;;;;2.05;1.17;;;;;;;;;;4998113;28;20022;-72
2022/01/09 13:46:13;;;;;;;1.48;0.43;;;;;;;;;;4994477;28;20046;-71
2022/01/09 13:48:50;;;;;;;0.57;0.30;;;;;;;;;;4992867;28;20037;-72
2022/01/09 13:51:16;;;;;;;0.75;0.55;;;;;;;;;;4989234;28;20033;-71
2022/01/09 13:54:01;;;;;;;0.17;0.17;;;;;;;;;;4993360;28;20083;-69
2022/01/09 13:56:27;;;;;;;0.55;0.55;;;;;;;;;;4997953;28;20031;-69
2022/01/09 13:58:55;;;;;;;0.65;0.40;;;;;;;;;;4985714;28;20023;-69
2022/01/09 14:01:41;;;;;;;0.98;0.40;;;;;;;;;;4981657;28;20034;-69
2022/01/09 14:04:17;;;;;;;0.10;0.10;;;;;;;;;;4970070;28;20367;-69
2022/01/09 14:06:44;;;;;;;1.08;0.85;;;;;;;;;;4993521;28;20492;-69
2022/01/09 14:09:10;;;;;;;0.20;0.20;;;;;;;;;;4990254;28;20026;-68
2022/01/09 14:11:36;;;;;;;0.10;0.10;;;;;;;;;;4981138;28;20045;-68
2022/01/09 14:14:02;;;;;;;0.68;0.68;;;;;;;;;;4986800;28;20031;-68
2022/01/09 14:16:35;;;;;;;0.30;0.30;;;;;;;;;;4982580;28;20473;-69
2022/01/09 14:19:05;;;;;;;0.75;0.65;;;;;;;;;;4986158;28;20034;-68
2022/01/09 14:21:50;;;;;;;0.28;0.28;;;;;;;;;;4987696;28;20042;-68
2022/01/09 14:24:16;;;;;;;1.98;0.65;;;;;;;;;;4988443;28;20080;-68
2022/01/09 14:26:54;;;;;;;0.25;0.25;;;;;;;;;;4987879;28;20037;-69
2022/01/09 14:29:33;;;;;;;0.30;0.30;;;;;;;;;;4969316;28;20031;-69
2022/01/09 14:31:59;;;;;;;0.25;0.25;;;;;;;;;;4982216;28;20073;-70
2022/01/09 14:34:25;;;;;;;0.40;0.30;;;;;;;;;;4984442;28;20080;-70
2022/01/09 14:36:51;;;;;;;0.63;0.63;;;;;;;;;;4987372;28;20056;-70
2022/01/09 14:39:17;;;;;;;0.25;0.25;;;;;;;;;;4980866;28;20808;-70
2022/01/09 14:41:42;;;;;;;0.10;0.10;;;;;;;;;;4986806;28;20018;-74
2022/01/09 14:44:08;;;;;;;0.35;0.35;;;;;;;;;;4990395;28;20428;-72
2022/01/09 14:46:35;;;;;;;0.65;0.65;;;;;;;;;;4992872;28;20050;-70
2022/01/09 14:49:01;;;;;;;0.85;0.60;;;;;;;;;;4981982;28;20071;-70
2022/01/09 14:51:27;;;;;;;0.35;0.35;;;;;;;;;;4981908;28;20053;-71
2022/01/09 14:53:55;;;;;;;1.08;0.95;;;;;;;;;;4980713;28;20037;-69